createdAt,value
2023-04-16T00:02:12.819Z,10.30
2023-04-16T00:04:40.911Z,9.20
2023-04-16T00:07:09.319Z,11.00
2023-04-16T00:09:37.434Z,10.80
2023-04-16T00:12:05.628Z,10.90
2023-04-16T00:14:32.819Z,11.40
2023-04-16T00:16:59.778Z,12.50
2023-04-16T00:19:26.921Z,12.20
2023-04-16T00:21:53.816Z,9.80
2023-04-16T00:24:21.403Z,13.80
2023-04-16T00:26:48.424Z,13.40
2023-04-16T00:29:15.611Z,16.10
2023-04-16T00:31:42.398Z,12.40
2023-04-16T00:34:09.360Z,10.90
2023-04-16T00:36:37.114Z,10.60
2023-04-16T00:39:04.112Z,11.30
2023-04-16T00:41:31.777Z,7.90
2023-04-16T00:43:58.643Z,10.10
2023-04-16T00:46:25.486Z,9.10
2023-04-16T00:48:53.110Z,11.20
2023-04-16T00:51:21.112Z,16.40
2023-04-16T00:53:48.064Z,10.20
2023-04-16T00:56:16.581Z,13.90
2023-04-16T00:58:44.577Z,9.30
2023-04-16T01:01:15.844Z,9.30
2023-04-16T01:03:45.925Z,10.20
2023-04-16T01:06:13.753Z,8.80
2023-04-16T01:08:40.721Z,9.20
2023-04-16T01:11:07.820Z,8.90
2023-04-16T01:13:38.608Z,8.20
2023-04-16T01:16:11.356Z,10.40
2023-04-16T01:18:38.734Z,6.50
2023-04-16T01:21:06.098Z,8.20
2023-04-16T01:23:33.530Z,15.80
2023-04-16T01:26:00.533Z,5.50
2023-04-16T01:28:28.661Z,7.50
2023-04-16T01:30:55.654Z,7.40
2023-04-16T01:33:43.346Z,10.90
2023-04-16T01:36:11.099Z,6.70
2023-04-16T01:38:39.319Z,8.80
2023-04-16T01:41:06.535Z,9.10
2023-04-16T01:43:33.474Z,7.20
2023-04-16T01:46:18.242Z,7.30
2023-04-16T01:51:13.163Z,6.70
2023-04-16T01:55:11.410Z,10.70
2023-04-16T01:57:38.962Z,9.10
2023-04-16T02:00:08.101Z,8.10
2023-04-16T02:02:46.576Z,9.30
2023-04-16T02:05:15.399Z,9.10
2023-04-16T02:07:42.809Z,9.90
2023-04-16T02:10:10.661Z,8.90
2023-04-16T02:12:40.632Z,7.50
2023-04-16T02:15:08.185Z,5.80
2023-04-16T02:17:36.092Z,8.10
2023-04-16T02:20:12.399Z,7.30
2023-04-16T02:22:44.314Z,9.70
2023-04-16T02:25:13.768Z,7.70
2023-04-16T02:27:41.338Z,9.70
2023-04-16T02:30:20.526Z,8.30
2023-04-16T02:32:47.462Z,14.50
2023-04-16T02:35:14.485Z,7.80
2023-04-16T02:37:41.232Z,7.00
2023-04-16T02:40:10.926Z,9.10
2023-04-16T02:42:41.816Z,9.00
2023-04-16T02:45:09.695Z,9.20
2023-04-16T02:47:37.217Z,7.50
2023-04-16T02:50:04.353Z,12.80
2023-04-16T02:52:32.369Z,10.80
2023-04-16T02:55:00.292Z,11.10
2023-04-16T02:57:27.042Z,10.40
2023-04-16T02:59:54.253Z,11.50
2023-04-16T03:02:21.181Z,11.90
2023-04-16T03:04:48.171Z,16.20
2023-04-16T03:07:15.357Z,13.40
2023-04-16T03:09:42.747Z,13.30
2023-04-16T03:12:10.453Z,12.80
2023-04-16T03:14:37.384Z,13.70
2023-04-16T03:17:04.134Z,15.20
2023-04-16T03:19:30.920Z,14.40
2023-04-16T03:21:57.718Z,11.50
2023-04-16T03:24:24.577Z,11.40
2023-04-16T03:26:51.362Z,12.80
2023-04-16T03:29:18.648Z,11.10
2023-04-16T03:31:45.769Z,10.20
2023-04-16T03:34:12.535Z,10.30
2023-04-16T03:36:41.322Z,6.90
2023-04-16T03:39:08.221Z,11.30
2023-04-16T03:41:37.222Z,11.20
2023-04-16T03:44:04.619Z,7.90
2023-04-16T03:58:35.556Z,14.50
2023-04-16T04:01:02.601Z,9.20
2023-04-16T04:03:30.893Z,8.80
2023-04-16T04:05:58.288Z,11.10
2023-04-16T04:08:29.282Z,7.90
2023-04-16T04:10:56.745Z,8.10
2023-04-16T04:13:25.216Z,10.90
2023-04-16T04:15:52.587Z,8.40
2023-04-16T04:18:21.472Z,8.40
2023-04-16T04:20:48.254Z,8.00
2023-04-16T04:23:17.606Z,6.50
2023-04-16T04:25:45.603Z,12.60
2023-04-16T04:28:12.682Z,10.30
2023-04-16T04:30:40.376Z,12.00
2023-04-16T04:33:07.212Z,8.30
2023-04-16T04:35:36.028Z,9.80
2023-04-16T04:38:03.243Z,8.60
2023-04-16T04:40:36.766Z,6.60
2023-04-16T04:43:03.962Z,7.70
2023-04-16T04:45:32.473Z,6.90
2023-04-16T04:48:00.177Z,6.90
2023-04-16T04:50:27.114Z,7.10
2023-04-16T04:52:54.150Z,7.10
2023-04-16T04:55:22.074Z,7.10
2023-04-16T04:57:49.533Z,6.00
2023-04-16T05:00:16.582Z,6.20
2023-04-16T05:02:55.715Z,6.90
2023-04-16T05:05:22.627Z,11.60
2023-04-16T05:07:49.509Z,8.70
2023-04-16T05:10:18.689Z,6.80
2023-04-16T05:12:50.160Z,8.40
2023-04-16T05:15:17.400Z,9.00
2023-04-16T05:17:46.019Z,11.00
2023-04-16T05:20:13.005Z,6.50
2023-04-16T05:22:40.384Z,6.00
2023-04-16T05:25:07.492Z,9.70
2023-04-16T05:27:35.778Z,10.20
2023-04-16T05:30:02.975Z,9.00
2023-04-16T05:32:36.340Z,6.70
2023-04-16T05:35:09.145Z,6.40
2023-04-16T05:37:36.261Z,4.90
2023-04-16T05:40:03.449Z,7.50
2023-04-16T05:42:30.906Z,11.90
2023-04-16T05:44:59.680Z,8.90
2023-04-16T05:47:26.696Z,6.60
2023-04-16T05:49:53.792Z,6.50
2023-04-16T05:52:20.580Z,6.70
2023-04-16T05:54:47.273Z,6.70
2023-04-16T05:57:14.428Z,9.30
2023-04-16T05:59:41.260Z,7.50
2023-04-16T06:02:08.149Z,8.30
2023-04-16T06:04:37.340Z,6.00
2023-04-16T06:07:04.566Z,6.80
2023-04-16T06:09:33.124Z,6.50
2023-04-16T06:12:00.682Z,7.90
2023-04-16T06:14:27.583Z,10.90
2023-04-16T06:16:55.842Z,8.00
2023-04-16T06:20:13.998Z,6.80
2023-04-16T06:23:59.743Z,5.20
2023-04-16T06:26:50.333Z,6.30
2023-04-16T06:29:17.218Z,7.60
2023-04-16T06:31:44.303Z,6.80
2023-04-16T06:35:11.447Z,5.30
2023-04-16T06:37:39.721Z,5.70
2023-04-16T06:40:08.181Z,12.10
2023-04-16T06:42:37.841Z,9.40
2023-04-16T06:45:06.073Z,10.20
2023-04-16T06:47:33.480Z,13.50
2023-04-16T06:50:00.250Z,13.90
2023-04-16T06:52:29.701Z,10.80
2023-04-16T06:54:56.714Z,11.40
2023-04-16T06:57:23.820Z,9.80
2023-04-16T06:59:50.813Z,9.10
2023-04-16T07:02:17.864Z,13.70
2023-04-16T07:04:44.960Z,12.20
2023-04-16T07:07:12.168Z,11.30
2023-04-16T07:09:39.954Z,10.10
2023-04-16T07:12:07.575Z,10.70
2023-04-16T07:14:35.251Z,8.60
2023-04-16T07:17:02.170Z,5.10
2023-04-16T07:19:32.080Z,6.40
2023-04-16T07:21:59.715Z,9.10
2023-04-16T07:24:28.366Z,9.50
2023-04-16T07:26:57.289Z,12.20
2023-04-16T07:29:24.533Z,11.20
2023-04-16T07:31:51.599Z,5.30
2023-04-16T07:34:18.870Z,7.90
2023-04-16T07:36:46.101Z,5.90
2023-04-16T07:39:13.329Z,11.30
2023-04-16T07:41:40.869Z,9.70
2023-04-16T07:44:09.106Z,8.50
2023-04-16T07:46:46.328Z,8.60
2023-04-16T07:49:14.434Z,7.80
2023-04-16T07:51:41.258Z,7.70
2023-04-16T07:54:08.405Z,10.50
2023-04-16T07:56:35.551Z,8.80
2023-04-16T07:59:18.283Z,7.70
2023-04-16T08:01:49.121Z,6.90
2023-04-16T08:04:22.540Z,7.70
2023-04-16T08:06:51.190Z,7.90
2023-04-16T08:09:28.406Z,4.50
2023-04-16T08:11:55.927Z,6.70
2023-04-16T08:14:23.127Z,9.80
2023-04-16T08:16:49.957Z,4.50
2023-04-16T08:19:16.925Z,7.30
2023-04-16T08:21:43.816Z,5.40
2023-04-16T08:24:13.135Z,4.50
2023-04-16T08:26:40.363Z,10.50
2023-04-16T08:29:07.442Z,5.90
2023-04-16T08:31:34.983Z,7.50
2023-04-16T08:34:03.332Z,6.70
2023-04-16T08:36:31.591Z,6.40
2023-04-16T08:38:58.498Z,6.70
2023-04-16T08:41:32.632Z,4.90
2023-04-16T08:44:01.809Z,5.70
2023-04-16T08:46:29.087Z,4.30
2023-04-16T08:48:56.036Z,8.10
2023-04-16T08:51:23.637Z,5.10
2023-04-16T08:53:59.927Z,4.80
2023-04-16T08:56:26.778Z,5.70
2023-04-16T08:58:57.928Z,6.70
2023-04-16T09:01:26.108Z,5.10
2023-04-16T09:03:53.217Z,5.50
2023-04-16T09:06:37.459Z,6.10
2023-04-16T09:09:08.432Z,6.30
2023-04-16T09:11:35.819Z,8.50
2023-04-16T09:14:02.962Z,7.90
2023-04-16T09:16:33.290Z,9.40
2023-04-16T09:19:00.505Z,4.20
2023-04-16T09:21:27.497Z,5.60
2023-04-16T09:23:54.284Z,4.80
2023-04-16T09:26:21.356Z,11.30
2023-04-16T09:28:50.184Z,7.70
2023-04-16T09:31:17.919Z,6.30
2023-04-16T09:34:14.218Z,4.10
2023-04-16T09:36:41.342Z,5.10
2023-04-16T09:39:09.165Z,5.20
2023-04-16T09:41:38.905Z,3.30
2023-04-16T09:44:06.233Z,7.60
2023-04-16T09:46:42.848Z,4.60
2023-04-16T09:49:17.116Z,6.90
2023-04-16T09:51:47.446Z,7.40
2023-04-16T09:54:16.486Z,4.70
2023-04-16T09:56:44.321Z,2.80
2023-04-16T09:59:18.654Z,5.40
2023-04-16T10:01:46.575Z,11.10
2023-04-16T10:04:13.724Z,5.20
2023-04-16T10:06:40.618Z,5.00
2023-04-16T10:09:08.850Z,3.20
2023-04-16T10:11:36.362Z,7.80
2023-04-16T10:14:03.582Z,5.20
2023-04-16T10:16:31.830Z,4.50
2023-04-16T10:18:59.114Z,5.80
2023-04-16T10:21:33.030Z,6.90
2023-04-16T10:23:59.851Z,4.70
2023-04-16T10:26:26.834Z,2.90
2023-04-16T10:28:54.993Z,6.10
2023-04-16T10:31:21.971Z,3.80
2023-04-16T10:33:48.894Z,6.70
2023-04-16T10:36:18.105Z,4.60
2023-04-16T10:38:54.056Z,6.10
2023-04-16T10:41:21.041Z,2.40
2023-04-16T10:43:51.245Z,6.60
2023-04-16T10:46:26.214Z,3.30
2023-04-16T10:48:53.925Z,5.90
2023-04-16T10:51:37.428Z,6.60
2023-04-16T10:54:28.382Z,5.20
2023-04-16T10:56:56.844Z,2.70
2023-04-16T10:59:24.394Z,3.30
2023-04-16T11:01:54.472Z,7.80
2023-04-16T11:04:21.951Z,5.10
2023-04-16T11:07:14.554Z,5.30
2023-04-16T11:09:47.002Z,6.70
2023-04-16T11:12:28.288Z,4.70
2023-04-16T11:15:05.780Z,4.20
2023-04-16T11:17:39.417Z,7.30
2023-04-16T11:20:19.558Z,6.20
2023-04-16T11:22:53.347Z,5.00
2023-04-16T11:25:21.985Z,2.70
2023-04-16T11:27:49.453Z,6.10
2023-04-16T11:30:16.425Z,2.80
2023-04-16T11:32:43.608Z,3.50
2023-04-16T11:35:18.701Z,5.20
2023-04-16T11:37:47.817Z,7.00
2023-04-16T11:40:15.512Z,4.00
2023-04-16T11:42:43.932Z,4.70
2023-04-16T11:45:13.562Z,6.50
2023-04-16T11:47:51.407Z,6.90
2023-04-16T11:50:21.361Z,4.90
2023-04-16T11:52:49.204Z,4.70
2023-04-16T11:55:16.262Z,10.10
2023-04-16T11:57:45.930Z,3.40
2023-04-16T12:00:13.531Z,3.60
2023-04-16T12:02:51.164Z,4.80
2023-04-16T12:05:38.489Z,4.30
2023-04-16T12:08:11.657Z,5.00
2023-04-16T12:10:59.151Z,5.20
2023-04-16T12:13:26.740Z,4.60
2023-04-16T12:15:57.595Z,5.30
2023-04-16T12:18:28.159Z,4.70
2023-04-16T12:20:55.564Z,4.00
2023-04-16T12:23:23.865Z,5.20
2023-04-16T12:25:51.637Z,6.20
2023-04-16T12:28:36.208Z,5.40
2023-04-16T12:31:03.867Z,8.80
2023-04-16T12:33:30.794Z,14.40
2023-04-16T12:35:57.763Z,4.00
2023-04-16T12:38:25.809Z,4.10
2023-04-16T12:40:56.164Z,10.50
2023-04-16T12:43:23.039Z,3.80
2023-04-16T12:45:50.581Z,2.80
2023-04-16T12:48:18.381Z,5.50
2023-04-16T12:50:45.592Z,7.70
2023-04-16T12:53:12.545Z,5.90
2023-04-16T12:55:39.990Z,4.70
2023-04-16T12:58:08.950Z,3.60
2023-04-16T13:00:36.974Z,4.40
2023-04-16T13:03:04.126Z,8.10
2023-04-16T13:05:31.041Z,4.20
2023-04-16T13:07:58.032Z,5.50
2023-04-16T13:10:27.533Z,5.70
2023-04-16T13:12:54.481Z,7.40
2023-04-16T13:15:27.124Z,9.30
2023-04-16T13:17:53.836Z,9.30
2023-04-16T13:20:22.491Z,5.80
2023-04-16T13:22:51.098Z,9.50
2023-04-16T13:25:19.440Z,8.50
2023-04-16T13:27:46.222Z,7.50
2023-04-16T13:30:13.670Z,5.90
2023-04-16T13:32:41.044Z,5.60
2023-04-16T13:35:10.134Z,5.70
2023-04-16T13:37:38.704Z,7.80
2023-04-16T13:40:09.016Z,7.30
2023-04-16T13:42:40.545Z,7.80
2023-04-16T13:45:08.968Z,8.50
2023-04-16T13:47:44.294Z,9.20
2023-04-16T13:50:11.462Z,12.20
2023-04-16T13:52:41.157Z,13.70
2023-04-16T13:55:09.534Z,8.40
2023-04-16T13:57:37.075Z,7.60
2023-04-16T14:00:04.373Z,3.60
2023-04-16T14:02:32.837Z,5.20
2023-04-16T14:04:59.861Z,5.00
2023-04-16T14:07:29.717Z,3.90
2023-04-16T14:09:57.835Z,7.30
2023-04-16T14:12:27.637Z,7.50
2023-04-16T14:14:57.790Z,5.70
2023-04-16T14:17:25.041Z,6.60
2023-04-16T14:19:52.100Z,7.70
2023-04-16T14:22:19.052Z,3.60
2023-04-16T14:24:45.927Z,7.70
2023-04-16T14:27:13.218Z,4.10
2023-04-16T14:29:43.243Z,5.00
2023-04-16T14:32:10.266Z,6.50
2023-04-16T14:34:37.810Z,6.20
2023-04-16T14:37:06.301Z,12.70
2023-04-16T14:39:33.258Z,5.40
2023-04-16T14:42:00.157Z,9.80
2023-04-16T14:44:30.545Z,6.90
2023-04-16T14:46:57.445Z,6.90
2023-04-16T14:49:25.584Z,12.50
2023-04-16T14:51:52.507Z,7.50
2023-04-16T14:54:19.598Z,10.60
2023-04-16T14:56:50.355Z,10.30
2023-04-16T14:59:17.376Z,10.30
2023-04-16T15:01:44.813Z,8.70
2023-04-16T15:04:15.663Z,6.00
2023-04-16T15:06:44.269Z,7.20
2023-04-16T15:09:11.198Z,8.60
2023-04-16T15:11:39.260Z,8.60
2023-04-16T15:14:09.172Z,8.10
2023-04-16T15:16:36.607Z,10.10
2023-04-16T15:19:07.485Z,5.60
2023-04-16T15:21:37.355Z,9.20
2023-04-16T15:24:04.854Z,8.30
2023-04-16T15:26:31.744Z,8.40
2023-04-16T15:29:03.942Z,7.10
2023-04-16T15:31:31.498Z,3.80
2023-04-16T15:34:01.102Z,5.70
2023-04-16T15:36:28.800Z,5.90
2023-04-16T15:38:55.688Z,5.30
2023-04-16T15:41:23.030Z,3.80
2023-04-16T15:43:51.271Z,5.40
2023-04-16T15:46:18.973Z,5.80
2023-04-16T15:48:45.882Z,5.70
2023-04-16T15:51:19.357Z,4.60
2023-04-16T15:53:49.520Z,8.40
2023-04-16T15:56:19.582Z,6.30
2023-04-16T15:58:48.301Z,7.60
2023-04-16T16:01:16.253Z,7.60
2023-04-16T16:04:56.001Z,7.00
2023-04-16T16:07:25.452Z,12.10
2023-04-16T16:09:55.017Z,11.00
2023-04-16T16:12:26.697Z,7.70
2023-04-16T16:14:56.787Z,13.40
2023-04-16T16:17:34.312Z,10.60
2023-04-16T16:20:04.651Z,8.40
2023-04-16T16:22:35.989Z,13.90
2023-04-16T16:25:06.111Z,10.90
2023-04-16T16:27:36.638Z,9.70
2023-04-16T16:30:09.864Z,11.00
2023-04-16T16:32:41.281Z,10.00
2023-04-16T16:35:12.564Z,10.30
2023-04-16T16:37:42.726Z,14.90
2023-04-16T16:40:13.910Z,9.50
2023-04-16T16:42:45.904Z,15.80
2023-04-16T16:45:17.145Z,10.40
2023-04-16T16:47:45.742Z,9.10
2023-04-16T16:50:16.946Z,12.50
2023-04-16T16:52:46.782Z,8.80
2023-04-16T16:57:44.479Z,9.40
2023-04-16T17:00:16.365Z,10.90
2023-04-16T17:02:46.965Z,13.80
2023-04-16T17:05:16.086Z,9.80
2023-04-16T17:07:46.104Z,9.10
2023-04-16T17:10:21.138Z,6.50
2023-04-16T17:13:09.964Z,8.10
2023-04-16T17:15:38.473Z,11.10
2023-04-16T17:18:06.754Z,4.80
2023-04-16T17:20:35.506Z,5.90
2023-04-16T17:23:04.273Z,9.20
2023-04-16T17:25:32.398Z,10.70
2023-04-16T17:28:01.636Z,8.20
2023-04-16T17:30:31.593Z,7.20
2023-04-16T17:33:05.128Z,9.10
2023-04-16T17:35:36.587Z,13.40
2023-04-16T17:38:08.023Z,8.80
2023-04-16T17:40:38.749Z,7.60
2023-04-16T17:43:07.073Z,8.50
2023-04-16T17:45:39.599Z,8.70
2023-04-16T17:48:08.245Z,10.40
2023-04-16T17:50:39.346Z,7.10
2023-04-16T17:53:11.258Z,6.80
2023-04-16T17:55:42.836Z,6.30
2023-04-16T17:58:11.541Z,7.70
2023-04-16T18:00:46.042Z,7.80
2023-04-16T18:03:15.123Z,8.00
2023-04-16T18:05:43.891Z,4.50
2023-04-16T18:08:12.694Z,7.60
2023-04-16T18:10:40.992Z,10.10
2023-04-16T18:13:09.256Z,8.20
2023-04-16T18:15:41.079Z,7.60
2023-04-16T18:18:10.122Z,8.90
2023-04-16T18:20:39.051Z,9.10
2023-04-16T18:23:07.342Z,6.10
2023-04-16T18:25:36.385Z,9.30
2023-04-16T18:28:06.380Z,4.90
2023-04-16T18:30:40.349Z,5.30
2023-04-16T18:33:33.438Z,12.10
2023-04-16T18:36:03.747Z,7.00
2023-04-16T18:39:02.487Z,8.40
2023-04-16T18:41:57.299Z,6.30
2023-04-16T18:44:38.908Z,20.70
2023-04-16T18:47:07.670Z,10.60
2023-04-16T18:49:43.860Z,5.80
2023-04-16T18:52:23.921Z,6.20
2023-04-16T18:54:55.192Z,7.00
2023-04-16T18:57:23.706Z,7.50
2023-04-16T18:59:52.688Z,6.80
2023-04-16T19:02:23.552Z,7.60
2023-04-16T19:04:52.281Z,8.80
2023-04-16T19:07:20.716Z,8.60
2023-04-16T19:09:50.945Z,9.80
2023-04-16T19:12:19.982Z,12.10
2023-04-16T19:14:48.275Z,10.50
2023-04-16T19:17:16.538Z,8.90
2023-04-16T19:19:44.887Z,11.80
2023-04-16T19:22:13.112Z,10.70
2023-04-16T19:24:41.641Z,4.20
2023-04-16T19:27:09.888Z,8.30
2023-04-16T19:29:38.469Z,9.00
2023-04-16T19:32:06.718Z,14.70
2023-04-16T19:34:35.439Z,14.50
2023-04-16T19:37:03.687Z,12.80
2023-04-16T19:39:33.505Z,14.10
2023-04-16T19:42:02.132Z,8.80
2023-04-16T19:44:30.494Z,14.60
2023-04-16T19:46:59.358Z,20.10
2023-04-16T19:49:35.139Z,13.10
2023-04-16T19:52:03.294Z,22.30
2023-04-16T19:54:33.806Z,22.70
2023-04-16T19:57:02.715Z,17.10
2023-04-16T19:59:32.414Z,22.30
2023-04-16T20:02:01.247Z,17.40
2023-04-16T20:04:29.718Z,14.70
2023-04-16T20:07:00.925Z,13.30
2023-04-16T20:09:29.328Z,18.90
2023-04-16T20:11:58.210Z,14.70
2023-04-16T20:14:27.651Z,10.30
2023-04-16T20:16:56.309Z,10.70
2023-04-16T20:19:31.717Z,10.70
2023-04-16T20:22:00.269Z,15.20
2023-04-16T20:24:31.606Z,9.80
2023-04-16T20:26:59.910Z,6.00
2023-04-16T20:29:35.593Z,10.60
2023-04-16T20:32:04.276Z,10.00
2023-04-16T20:34:38.129Z,8.90
2023-04-16T20:37:06.429Z,5.80
2023-04-16T20:39:36.420Z,4.60
2023-04-16T20:42:10.322Z,5.00
2023-04-16T20:44:42.403Z,9.40
2023-04-16T20:47:11.817Z,9.50
2023-04-16T20:49:40.423Z,12.10
2023-04-16T20:52:08.883Z,13.80
2023-04-16T20:54:38.019Z,12.70
2023-04-16T20:57:06.572Z,14.20
2023-04-16T20:59:37.150Z,17.60
2023-04-16T21:02:06.093Z,12.80
2023-04-16T21:04:34.582Z,17.20
2023-04-16T21:07:04.511Z,17.40
2023-04-16T21:09:36.639Z,21.20
2023-04-16T21:12:05.121Z,16.00
2023-04-16T21:14:33.555Z,18.80
2023-04-16T21:17:01.887Z,19.60
2023-04-16T21:19:31.706Z,23.90
2023-04-16T21:22:00.072Z,24.10
2023-04-16T21:24:28.631Z,13.50
2023-04-16T21:26:57.445Z,10.20
2023-04-16T21:29:25.750Z,12.70
2023-04-16T21:31:54.375Z,16.00
2023-04-16T21:34:22.628Z,9.20
2023-04-16T21:36:51.101Z,2.40
2023-04-16T21:39:21.848Z,6.90
2023-04-16T21:41:50.102Z,5.20
2023-04-16T21:44:18.332Z,6.10
2023-04-16T21:46:46.729Z,3.30
2023-04-16T21:49:15.232Z,6.40
2023-04-16T21:51:46.388Z,9.20
2023-04-16T21:54:18.014Z,8.90
2023-04-16T21:56:46.394Z,8.90
2023-04-16T21:59:14.532Z,10.00
2023-04-16T22:01:42.815Z,10.90
2023-04-16T22:04:12.501Z,22.60
2023-04-16T22:06:41.853Z,17.30
2023-04-16T22:09:10.262Z,19.70
2023-04-16T22:11:38.831Z,18.60
2023-04-16T22:14:08.382Z,18.10
2023-04-16T22:16:42.044Z,23.30
2023-04-16T22:19:10.999Z,29.20
2023-04-16T22:21:39.764Z,18.00
2023-04-16T22:24:07.930Z,17.60
2023-04-16T22:26:36.547Z,18.80
2023-04-16T22:29:04.787Z,11.10
2023-04-16T22:31:33.099Z,16.10
2023-04-16T22:34:03.316Z,20.10
2023-04-16T22:36:32.903Z,18.20
2023-04-16T22:39:01.033Z,14.70
2023-04-16T22:41:29.344Z,15.70
2023-04-16T22:43:57.572Z,16.40
2023-04-16T22:46:26.658Z,17.10
2023-04-16T22:48:55.163Z,15.50
2023-04-16T22:51:24.594Z,11.40
2023-04-16T22:53:52.845Z,12.30
2023-04-16T22:56:21.507Z,10.70
2023-04-16T22:58:49.817Z,10.60
2023-04-16T23:01:18.279Z,9.10
2023-04-16T23:03:47.041Z,11.50
2023-04-16T23:06:15.831Z,6.80
2023-04-16T23:08:44.728Z,7.70
2023-04-16T23:11:12.946Z,10.60
2023-04-16T23:13:42.916Z,5.40
2023-04-16T23:16:11.638Z,6.00
2023-04-16T23:18:40.049Z,9.60
2023-04-16T23:21:08.162Z,7.00
2023-04-16T23:23:36.836Z,7.50
2023-04-16T23:26:05.328Z,6.60
2023-04-16T23:28:33.668Z,5.40
2023-04-16T23:31:01.910Z,5.80
2023-04-16T23:33:30.243Z,10.70
2023-04-16T23:35:58.484Z,5.70
2023-04-16T23:38:26.689Z,5.60
2023-04-16T23:40:54.986Z,5.90
2023-04-16T23:43:23.782Z,6.80
2023-04-16T23:45:51.992Z,4.60
2023-04-16T23:48:20.590Z,3.50
2023-04-16T23:50:50.877Z,6.20
2023-04-16T23:53:19.936Z,4.10
2023-04-16T23:55:48.058Z,5.20
2023-04-16T23:58:16.273Z,9.90
